sensor_id;sensor_type;location;lat;lon;timestamp;temperature;humidity
4811;DHT22;2419;51.276;6.472;2024-01-06T00:00:05;6.80;99.90
4811;DHT22;2419;51.276;6.472;2024-01-06T00:02:37;6.90;99.90
4811;DHT22;2419;51.276;6.472;2024-01-06T00:05:06;6.90;99.90
4811;DHT22;2419;51.276;6.472;2024-01-06T00:07:34;7.00;99.90
4811;DHT22;2419;51.276;6.472;2024-01-06T00:10:02;6.90;99.90
4811;DHT22;2419;51.276;6.472;2024-01-06T00:12:30;6.90;99.90
4811;DHT22;2419;51.276;6.472;2024-01-06T00:14:59;6.90;99.90
4811;DHT22;2419;51.276;6.472;2024-01-06T00:17:28;6.90;99.90
4811;DHT22;2419;51.276;6.472;2024-01-06T00:19:56;6.90;99.90
4811;DHT22;2419;51.276;6.472;2024-01-06T00:22:27;6.90;99.90
4811;DHT22;2419;51.276;6.472;2024-01-06T00:24:55;6.90;99.90
4811;DHT22;2419;51.276;6.472;2024-01-06T00:27:23;6.90;99.90
4811;DHT22;2419;51.276;6.472;2024-01-06T00:29:51;7.00;99.90
4811;DHT22;2419;51.276;6.472;2024-01-06T00:32:19;7.00;99.90
4811;DHT22;2419;51.276;6.472;2024-01-06T00:34:48;6.90;99.90
4811;DHT22;2419;51.276;6.472;2024-01-06T00:37:17;6.90;99.90
4811;DHT22;2419;51.276;6.472;2024-01-06T00:39:45;7.00;99.90
4811;DHT22;2419;51.276;6.472;2024-01-06T00:42:13;7.00;99.90
4811;DHT22;2419;51.276;6.472;2024-01-06T00:44:41;7.00;99.90
4811;DHT22;2419;51.276;6.472;2024-01-06T00:47:09;7.00;99.90
4811;DHT22;2419;51.276;6.472;2024-01-06T00:49:37;7.00;99.90
4811;DHT22;2419;51.276;6.472;2024-01-06T00:52:07;7.00;99.90
4811;DHT22;2419;51.276;6.472;2024-01-06T00:54:35;7.00;99.90
4811;DHT22;2419;51.276;6.472;2024-01-06T00:57:03;7.00;99.90
4811;DHT22;2419;51.276;6.472;2024-01-06T00:59:31;7.00;99.90
4811;DHT22;2419;51.276;6.472;2024-01-06T01:02:00;7.00;99.90
4811;DHT22;2419;51.276;6.472;2024-01-06T01:04:28;7.10;99.90
4811;DHT22;2419;51.276;6.472;2024-01-06T01:06:56;7.00;99.90
4811;DHT22;2419;51.276;6.472;2024-01-06T01:09:25;7.10;99.90
4811;DHT22;2419;51.276;6.472;2024-01-06T01:11:53;7.10;99.90
4811;DHT22;2419;51.276;6.472;2024-01-06T01:14:21;7.10;99.90
4811;DHT22;2419;51.276;6.472;2024-01-06T01:16:49;7.10;99.90
4811;DHT22;2419;51.276;6.472;2024-01-06T01:19:17;7.10;99.90
4811;DHT22;2419;51.276;6.472;2024-01-06T01:21:46;7.00;99.90
4811;DHT22;2419;51.276;6.472;2024-01-06T01:24:14;7.00;99.90
4811;DHT22;2419;51.276;6.472;2024-01-06T01:26:43;7.00;99.90
4811;DHT22;2419;51.276;6.472;2024-01-06T01:29:11;7.00;99.90
4811;DHT22;2419;51.276;6.472;2024-01-06T01:31:39;7.00;99.90
4811;DHT22;2419;51.276;6.472;2024-01-06T01:34:07;7.00;99.90
4811;DHT22;2419;51.276;6.472;2024-01-06T01:36:36;7.00;99.90
4811;DHT22;2419;51.276;6.472;2024-01-06T01:39:04;7.10;99.90
4811;DHT22;2419;51.276;6.472;2024-01-06T01:41:32;7.10;99.90
4811;DHT22;2419;51.276;6.472;2024-01-06T01:44:02;7.00;99.90
4811;DHT22;2419;51.276;6.472;2024-01-06T01:46:30;7.00;99.90
4811;DHT22;2419;51.276;6.472;2024-01-06T01:49:00;7.00;99.90
4811;DHT22;2419;51.276;6.472;2024-01-06T01:51:29;7.00;99.90
4811;DHT22;2419;51.276;6.472;2024-01-06T01:53:58;7.00;99.90
4811;DHT22;2419;51.276;6.472;2024-01-06T01:56:27;7.00;99.90
4811;DHT22;2419;51.276;6.472;2024-01-06T01:58:55;7.00;99.90
4811;DHT22;2419;51.276;6.472;2024-01-06T02:01:25;7.00;99.90
4811;DHT22;2419;51.276;6.472;2024-01-06T02:03:53;7.00;99.90
4811;DHT22;2419;51.276;6.472;2024-01-06T02:06:21;7.00;99.90
4811;DHT22;2419;51.276;6.472;2024-01-06T02:08:49;7.00;99.90
4811;DHT22;2419;51.276;6.472;2024-01-06T02:11:18;7.00;99.90
4811;DHT22;2419;51.276;6.472;2024-01-06T02:13:46;7.00;99.90
4811;DHT22;2419;51.276;6.472;2024-01-06T02:16:14;7.00;99.90
4811;DHT22;2419;51.276;6.472;2024-01-06T02:18:43;7.00;99.90
4811;DHT22;2419;51.276;6.472;2024-01-06T02:21:11;7.00;99.90
4811;DHT22;2419;51.276;6.472;2024-01-06T02:23:41;7.00;99.90
4811;DHT22;2419;51.276;6.472;2024-01-06T02:26:10;7.00;99.90
4811;DHT22;2419;51.276;6.472;2024-01-06T02:28:38;7.00;99.90
4811;DHT22;2419;51.276;6.472;2024-01-06T02:31:06;7.00;99.90
4811;DHT22;2419;51.276;6.472;2024-01-06T02:33:34;6.90;99.90
4811;DHT22;2419;51.276;6.472;2024-01-06T02:36:03;7.00;99.90
4811;DHT22;2419;51.276;6.472;2024-01-06T02:38:31;6.90;99.90
4811;DHT22;2419;51.276;6.472;2024-01-06T02:41:01;6.90;99.90
4811;DHT22;2419;51.276;6.472;2024-01-06T02:43:29;6.90;99.90
4811;DHT22;2419;51.276;6.472;2024-01-06T02:45:57;6.90;99.90
4811;DHT22;2419;51.276;6.472;2024-01-06T02:48:25;6.90;99.90
4811;DHT22;2419;51.276;6.472;2024-01-06T02:50:53;6.90;99.90
4811;DHT22;2419;51.276;6.472;2024-01-06T02:53:21;6.90;99.90
4811;DHT22;2419;51.276;6.472;2024-01-06T02:55:49;6.90;99.90
4811;DHT22;2419;51.276;6.472;2024-01-06T02:58:19;6.90;99.90
4811;DHT22;2419;51.276;6.472;2024-01-06T03:00:47;6.90;99.90
4811;DHT22;2419;51.276;6.472;2024-01-06T03:03:15;6.90;99.90
4811;DHT22;2419;51.276;6.472;2024-01-06T03:05:43;6.90;99.90
4811;DHT22;2419;51.276;6.472;2024-01-06T03:08:14;6.90;99.90
4811;DHT22;2419;51.276;6.472;2024-01-06T03:10:42;6.80;99.90
4811;DHT22;2419;51.276;6.472;2024-01-06T03:13:10;6.80;99.90
4811;DHT22;2419;51.276;6.472;2024-01-06T03:15:39;6.80;99.90
4811;DHT22;2419;51.276;6.472;2024-01-06T03:18:07;6.80;99.90
4811;DHT22;2419;51.276;6.472;2024-01-06T03:20:36;6.80;99.90
4811;DHT22;2419;51.276;6.472;2024-01-06T03:23:04;6.80;99.90
4811;DHT22;2419;51.276;6.472;2024-01-06T03:25:32;6.60;99.90
4811;DHT22;2419;51.276;6.472;2024-01-06T03:28:00;6.40;99.90
4811;DHT22;2419;51.276;6.472;2024-01-06T03:30:28;6.30;99.90
4811;DHT22;2419;51.276;6.472;2024-01-06T03:32:57;6.20;99.90
4811;DHT22;2419;51.276;6.472;2024-01-06T03:35:25;6.20;99.90
4811;DHT22;2419;51.276;6.472;2024-01-06T03:37:53;6.10;99.90
4811;DHT22;2419;51.276;6.472;2024-01-06T03:40:22;6.00;99.90
4811;DHT22;2419;51.276;6.472;2024-01-06T03:42:50;6.00;99.90
4811;DHT22;2419;51.276;6.472;2024-01-06T03:45:18;5.90;99.90
4811;DHT22;2419;51.276;6.472;2024-01-06T03:47:46;5.90;99.90
4811;DHT22;2419;51.276;6.472;2024-01-06T03:50:16;5.90;99.90
4811;DHT22;2419;51.276;6.472;2024-01-06T03:52:44;5.90;99.90
4811;DHT22;2419;51.276;6.472;2024-01-06T03:55:12;5.80;99.90
4811;DHT22;2419;51.276;6.472;2024-01-06T03:57:40;5.90;99.90
4811;DHT22;2419;51.276;6.472;2024-01-06T04:00:09;5.90;99.90
4811;DHT22;2419;51.276;6.472;2024-01-06T04:02:37;5.80;99.90
4811;DHT22;2419;51.276;6.472;2024-01-06T04:05:05;5.80;99.90
4811;DHT22;2419;51.276;6.472;2024-01-06T04:07:35;5.80;99.90
4811;DHT22;2419;51.276;6.472;2024-01-06T04:10:03;5.80;99.90
4811;DHT22;2419;51.276;6.472;2024-01-06T04:12:32;5.80;99.90
4811;DHT22;2419;51.276;6.472;2024-01-06T04:15:01;5.80;99.90
4811;DHT22;2419;51.276;6.472;2024-01-06T04:17:30;5.80;99.90
4811;DHT22;2419;51.276;6.472;2024-01-06T04:19:58;5.80;99.90
4811;DHT22;2419;51.276;6.472;2024-01-06T04:22:26;5.70;99.90
4811;DHT22;2419;51.276;6.472;2024-01-06T04:24:55;5.80;99.90
4811;DHT22;2419;51.276;6.472;2024-01-06T04:27:23;5.70;99.90
4811;DHT22;2419;51.276;6.472;2024-01-06T04:29:51;5.80;99.90
4811;DHT22;2419;51.276;6.472;2024-01-06T04:32:20;5.80;99.90
4811;DHT22;2419;51.276;6.472;2024-01-06T04:34:48;5.80;99.90
4811;DHT22;2419;51.276;6.472;2024-01-06T04:37:16;5.70;99.90
4811;DHT22;2419;51.276;6.472;2024-01-06T04:39:44;5.80;99.90
4811;DHT22;2419;51.276;6.472;2024-01-06T04:42:13;5.70;99.90
4811;DHT22;2419;51.276;6.472;2024-01-06T04:44:41;5.70;99.90
4811;DHT22;2419;51.276;6.472;2024-01-06T04:47:09;5.70;99.90
4811;DHT22;2419;51.276;6.472;2024-01-06T04:49:37;5.70;99.90
4811;DHT22;2419;51.276;6.472;2024-01-06T04:52:05;5.70;99.90
4811;DHT22;2419;51.276;6.472;2024-01-06T04:54:33;5.70;99.90
4811;DHT22;2419;51.276;6.472;2024-01-06T04:57:02;5.70;99.90
4811;DHT22;2419;51.276;6.472;2024-01-06T04:59:32;5.70;99.90
4811;DHT22;2419;51.276;6.472;2024-01-06T05:02:00;5.70;99.90
4811;DHT22;2419;51.276;6.472;2024-01-06T05:04:28;5.70;99.90
4811;DHT22;2419;51.276;6.472;2024-01-06T05:06:57;5.70;99.90
4811;DHT22;2419;51.276;6.472;2024-01-06T05:09:25;5.70;99.90
4811;DHT22;2419;51.276;6.472;2024-01-06T05:11:54;5.70;99.90
4811;DHT22;2419;51.276;6.472;2024-01-06T05:14:22;5.70;99.90
4811;DHT22;2419;51.276;6.472;2024-01-06T05:16:51;5.60;99.90
4811;DHT22;2419;51.276;6.472;2024-01-06T05:19:19;5.60;99.90
4811;DHT22;2419;51.276;6.472;2024-01-06T05:21:49;5.60;99.90
4811;DHT22;2419;51.276;6.472;2024-01-06T05:24:17;5.70;99.90
4811;DHT22;2419;51.276;6.472;2024-01-06T05:26:45;5.70;99.90
4811;DHT22;2419;51.276;6.472;2024-01-06T05:29:14;5.70;99.90
4811;DHT22;2419;51.276;6.472;2024-01-06T05:31:42;5.60;99.90
4811;DHT22;2419;51.276;6.472;2024-01-06T05:34:11;5.60;99.90
4811;DHT22;2419;51.276;6.472;2024-01-06T05:36:39;5.60;99.90
4811;DHT22;2419;51.276;6.472;2024-01-06T05:39:07;5.60;99.90
4811;DHT22;2419;51.276;6.472;2024-01-06T05:41:38;5.60;99.90
4811;DHT22;2419;51.276;6.472;2024-01-06T05:44:06;5.60;99.90
4811;DHT22;2419;51.276;6.472;2024-01-06T05:46:35;5.60;99.90
4811;DHT22;2419;51.276;6.472;2024-01-06T05:49:03;5.60;99.90
4811;DHT22;2419;51.276;6.472;2024-01-06T05:51:32;5.60;99.90
4811;DHT22;2419;51.276;6.472;2024-01-06T05:54:00;5.60;99.90
4811;DHT22;2419;51.276;6.472;2024-01-06T05:56:29;5.60;99.90
4811;DHT22;2419;51.276;6.472;2024-01-06T05:58:57;5.60;99.90
4811;DHT22;2419;51.276;6.472;2024-01-06T06:01:25;5.60;99.90
4811;DHT22;2419;51.276;6.472;2024-01-06T06:03:53;5.50;99.90
4811;DHT22;2419;51.276;6.472;2024-01-06T06:06:22;5.50;99.90
4811;DHT22;2419;51.276;6.472;2024-01-06T06:08:51;5.50;99.90
4811;DHT22;2419;51.276;6.472;2024-01-06T06:11:19;5.50;99.90
4811;DHT22;2419;51.276;6.472;2024-01-06T06:13:47;5.40;99.90
4811;DHT22;2419;51.276;6.472;2024-01-06T06:16:15;5.40;99.90
4811;DHT22;2419;51.276;6.472;2024-01-06T06:18:43;5.40;99.90
4811;DHT22;2419;51.276;6.472;2024-01-06T06:21:11;5.40;99.90
4811;DHT22;2419;51.276;6.472;2024-01-06T06:23:39;5.40;99.90
4811;DHT22;2419;51.276;6.472;2024-01-06T06:26:09;5.40;99.90
4811;DHT22;2419;51.276;6.472;2024-01-06T06:28:38;5.40;99.90
4811;DHT22;2419;51.276;6.472;2024-01-06T06:31:07;5.40;99.90
4811;DHT22;2419;51.276;6.472;2024-01-06T06:33:35;5.30;99.90
4811;DHT22;2419;51.276;6.472;2024-01-06T06:36:04;5.30;99.90
4811;DHT22;2419;51.276;6.472;2024-01-06T06:38:32;5.20;99.90
4811;DHT22;2419;51.276;6.472;2024-01-06T06:41:00;5.20;99.90
4811;DHT22;2419;51.276;6.472;2024-01-06T06:43:29;5.20;99.90
4811;DHT22;2419;51.276;6.472;2024-01-06T06:45:57;5.20;99.90
4811;DHT22;2419;51.276;6.472;2024-01-06T06:48:26;5.20;99.90
4811;DHT22;2419;51.276;6.472;2024-01-06T06:50:54;5.20;99.90
4811;DHT22;2419;51.276;6.472;2024-01-06T06:53:22;5.20;99.90
4811;DHT22;2419;51.276;6.472;2024-01-06T06:55:50;5.20;99.90
4811;DHT22;2419;51.276;6.472;2024-01-06T06:58:18;5.20;99.90
4811;DHT22;2419;51.276;6.472;2024-01-06T07:00:47;5.20;99.90
4811;DHT22;2419;51.276;6.472;2024-01-06T07:03:16;5.30;99.90
4811;DHT22;2419;51.276;6.472;2024-01-06T07:05:44;5.20;99.90
4811;DHT22;2419;51.276;6.472;2024-01-06T07:08:12;5.20;99.90
4811;DHT22;2419;51.276;6.472;2024-01-06T07:10:42;5.20;99.90
4811;DHT22;2419;51.276;6.472;2024-01-06T07:13:10;5.20;99.90
4811;DHT22;2419;51.276;6.472;2024-01-06T07:15:38;5.20;99.90
4811;DHT22;2419;51.276;6.472;2024-01-06T07:18:08;5.20;99.90
4811;DHT22;2419;51.276;6.472;2024-01-06T07:20:37;5.20;99.90
4811;DHT22;2419;51.276;6.472;2024-01-06T07:23:05;5.20;99.90
4811;DHT22;2419;51.276;6.472;2024-01-06T07:25:33;5.20;99.90
4811;DHT22;2419;51.276;6.472;2024-01-06T07:28:01;5.20;99.90
4811;DHT22;2419;51.276;6.472;2024-01-06T07:30:30;5.10;99.90
4811;DHT22;2419;51.276;6.472;2024-01-06T07:32:58;5.20;99.90
4811;DHT22;2419;51.276;6.472;2024-01-06T07:35:28;5.20;99.90
4811;DHT22;2419;51.276;6.472;2024-01-06T07:37:56;5.20;99.90
4811;DHT22;2419;51.276;6.472;2024-01-06T07:40:24;5.30;99.90
4811;DHT22;2419;51.276;6.472;2024-01-06T07:42:52;5.20;99.90
4811;DHT22;2419;51.276;6.472;2024-01-06T07:45:20;5.20;99.90
4811;DHT22;2419;51.276;6.472;2024-01-06T07:47:48;5.20;99.90
4811;DHT22;2419;51.276;6.472;2024-01-06T07:50:17;5.20;99.90
4811;DHT22;2419;51.276;6.472;2024-01-06T07:52:46;5.20;99.90
4811;DHT22;2419;51.276;6.472;2024-01-06T07:55:13;5.20;99.90
4811;DHT22;2419;51.276;6.472;2024-01-06T07:57:42;5.20;99.90
4811;DHT22;2419;51.276;6.472;2024-01-06T08:00:12;5.20;99.90
4811;DHT22;2419;51.276;6.472;2024-01-06T08:02:42;5.20;99.90
4811;DHT22;2419;51.276;6.472;2024-01-06T08:05:10;5.20;99.90
4811;DHT22;2419;51.276;6.472;2024-01-06T08:07:39;5.30;99.90
4811;DHT22;2419;51.276;6.472;2024-01-06T08:10:09;5.20;99.90
4811;DHT22;2419;51.276;6.472;2024-01-06T08:12:37;5.10;99.90
4811;DHT22;2419;51.276;6.472;2024-01-06T08:15:05;5.20;99.90
4811;DHT22;2419;51.276;6.472;2024-01-06T08:17:35;5.20;99.90
4811;DHT22;2419;51.276;6.472;2024-01-06T08:20:05;5.30;99.90
4811;DHT22;2419;51.276;6.472;2024-01-06T08:22:33;5.20;99.90
4811;DHT22;2419;51.276;6.472;2024-01-06T08:25:01;5.20;99.90
4811;DHT22;2419;51.276;6.472;2024-01-06T08:27:31;5.20;99.90
4811;DHT22;2419;51.276;6.472;2024-01-06T08:29:59;5.20;99.90
4811;DHT22;2419;51.276;6.472;2024-01-06T08:32:27;5.20;99.90
4811;DHT22;2419;51.276;6.472;2024-01-06T08:34:55;5.20;99.90
4811;DHT22;2419;51.276;6.472;2024-01-06T08:37:24;5.20;99.90
4811;DHT22;2419;51.276;6.472;2024-01-06T08:39:52;5.30;99.90
4811;DHT22;2419;51.276;6.472;2024-01-06T08:42:20;5.30;99.90
4811;DHT22;2419;51.276;6.472;2024-01-06T08:44:49;5.20;99.90
4811;DHT22;2419;51.276;6.472;2024-01-06T08:47:17;5.30;99.90
4811;DHT22;2419;51.276;6.472;2024-01-06T08:49:45;5.40;99.90
4811;DHT22;2419;51.276;6.472;2024-01-06T08:52:14;5.40;99.90
4811;DHT22;2419;51.276;6.472;2024-01-06T08:54:42;5.40;99.90
4811;DHT22;2419;51.276;6.472;2024-01-06T08:57:10;5.30;99.90
4811;DHT22;2419;51.276;6.472;2024-01-06T08:59:38;5.40;99.90
4811;DHT22;2419;51.276;6.472;2024-01-06T09:02:08;5.40;99.90
4811;DHT22;2419;51.276;6.472;2024-01-06T09:04:36;5.30;99.90
4811;DHT22;2419;51.276;6.472;2024-01-06T09:07:04;5.30;99.90
4811;DHT22;2419;51.276;6.472;2024-01-06T09:09:33;5.30;99.90
4811;DHT22;2419;51.276;6.472;2024-01-06T09:12:01;5.30;99.90
4811;DHT22;2419;51.276;6.472;2024-01-06T09:14:29;5.30;99.90
4811;DHT22;2419;51.276;6.472;2024-01-06T09:16:57;5.20;99.90
4811;DHT22;2419;51.276;6.472;2024-01-06T09:19:27;5.20;99.90
4811;DHT22;2419;51.276;6.472;2024-01-06T09:21:56;5.20;99.90
4811;DHT22;2419;51.276;6.472;2024-01-06T09:24:24;5.30;99.90
4811;DHT22;2419;51.276;6.472;2024-01-06T09:26:52;5.30;99.90
4811;DHT22;2419;51.276;6.472;2024-01-06T09:29:20;5.20;99.90
4811;DHT22;2419;51.276;6.472;2024-01-06T09:31:48;5.30;99.90
4811;DHT22;2419;51.276;6.472;2024-01-06T09:34:16;5.20;99.90
4811;DHT22;2419;51.276;6.472;2024-01-06T09:36:46;5.20;99.90
4811;DHT22;2419;51.276;6.472;2024-01-06T09:39:14;5.20;99.90
4811;DHT22;2419;51.276;6.472;2024-01-06T09:41:42;5.10;99.90
4811;DHT22;2419;51.276;6.472;2024-01-06T09:44:10;5.10;99.90
4811;DHT22;2419;51.276;6.472;2024-01-06T09:46:42;5.10;99.90
4811;DHT22;2419;51.276;6.472;2024-01-06T09:49:11;5.00;99.90
4811;DHT22;2419;51.276;6.472;2024-01-06T09:51:40;5.00;99.90
4811;DHT22;2419;51.276;6.472;2024-01-06T09:54:12;4.90;99.90
4811;DHT22;2419;51.276;6.472;2024-01-06T09:56:45;4.80;99.90
4811;DHT22;2419;51.276;6.472;2024-01-06T09:59:14;4.70;99.90
4811;DHT22;2419;51.276;6.472;2024-01-06T10:01:42;4.70;99.90
4811;DHT22;2419;51.276;6.472;2024-01-06T10:04:12;4.70;99.90
4811;DHT22;2419;51.276;6.472;2024-01-06T10:06:47;4.70;99.90
4811;DHT22;2419;51.276;6.472;2024-01-06T10:09:16;4.70;99.90
4811;DHT22;2419;51.276;6.472;2024-01-06T10:11:44;4.60;99.90
4811;DHT22;2419;51.276;6.472;2024-01-06T10:14:12;4.60;99.90
4811;DHT22;2419;51.276;6.472;2024-01-06T10:16:40;4.60;99.90
4811;DHT22;2419;51.276;6.472;2024-01-06T10:19:09;4.60;99.90
4811;DHT22;2419;51.276;6.472;2024-01-06T10:21:38;4.60;99.90
4811;DHT22;2419;51.276;6.472;2024-01-06T10:24:07;4.50;99.90
4811;DHT22;2419;51.276;6.472;2024-01-06T10:26:37;4.40;99.90
4811;DHT22;2419;51.276;6.472;2024-01-06T10:29:06;4.40;99.90
4811;DHT22;2419;51.276;6.472;2024-01-06T10:31:35;4.40;99.90
4811;DHT22;2419;51.276;6.472;2024-01-06T10:34:05;4.40;99.90
4811;DHT22;2419;51.276;6.472;2024-01-06T10:36:33;4.40;99.90
4811;DHT22;2419;51.276;6.472;2024-01-06T10:39:03;4.40;99.90
4811;DHT22;2419;51.276;6.472;2024-01-06T10:41:32;4.40;99.90
4811;DHT22;2419;51.276;6.472;2024-01-06T10:44:02;4.40;99.90
4811;DHT22;2419;51.276;6.472;2024-01-06T10:46:31;4.30;99.90
4811;DHT22;2419;51.276;6.472;2024-01-06T10:49:00;4.30;99.90
4811;DHT22;2419;51.276;6.472;2024-01-06T10:51:30;4.40;99.90
4811;DHT22;2419;51.276;6.472;2024-01-06T10:54:01;4.40;99.90
4811;DHT22;2419;51.276;6.472;2024-01-06T10:56:30;4.30;99.90
4811;DHT22;2419;51.276;6.472;2024-01-06T10:58:58;4.30;99.90
4811;DHT22;2419;51.276;6.472;2024-01-06T11:01:29;4.20;99.90
4811;DHT22;2419;51.276;6.472;2024-01-06T11:03:59;4.20;99.90
4811;DHT22;2419;51.276;6.472;2024-01-06T11:06:28;4.30;99.90
4811;DHT22;2419;51.276;6.472;2024-01-06T11:09:04;4.30;99.90
4811;DHT22;2419;51.276;6.472;2024-01-06T11:11:35;4.30;99.90
4811;DHT22;2419;51.276;6.472;2024-01-06T11:17:52;4.30;99.90
4811;DHT22;2419;51.276;6.472;2024-01-06T11:20:23;4.40;99.90
4811;DHT22;2419;51.276;6.472;2024-01-06T11:22:51;4.30;99.90
4811;DHT22;2419;51.276;6.472;2024-01-06T11:25:21;4.20;99.90
4811;DHT22;2419;51.276;6.472;2024-01-06T11:27:50;4.20;99.90
4811;DHT22;2419;51.276;6.472;2024-01-06T11:30:25;4.10;99.90
4811;DHT22;2419;51.276;6.472;2024-01-06T11:32:56;4.20;99.90
4811;DHT22;2419;51.276;6.472;2024-01-06T11:35:27;4.10;99.90
4811;DHT22;2419;51.276;6.472;2024-01-06T11:37:56;4.10;99.90
4811;DHT22;2419;51.276;6.472;2024-01-06T11:40:31;4.20;99.90
4811;DHT22;2419;51.276;6.472;2024-01-06T11:43:02;4.20;99.90
4811;DHT22;2419;51.276;6.472;2024-01-06T11:45:32;4.10;99.90
4811;DHT22;2419;51.276;6.472;2024-01-06T11:48:02;4.10;99.90
4811;DHT22;2419;51.276;6.472;2024-01-06T11:50:32;4.00;99.90
4811;DHT22;2419;51.276;6.472;2024-01-06T11:53:01;4.10;99.90
4811;DHT22;2419;51.276;6.472;2024-01-06T11:55:30;4.10;99.90
4811;DHT22;2419;51.276;6.472;2024-01-06T11:57:59;4.10;99.90
4811;DHT22;2419;51.276;6.472;2024-01-06T12:00:30;4.00;99.90
4811;DHT22;2419;51.276;6.472;2024-01-06T12:03:00;4.10;99.90
4811;DHT22;2419;51.276;6.472;2024-01-06T12:05:29;4.10;99.90
4811;DHT22;2419;51.276;6.472;2024-01-06T12:07:58;4.10;99.90
4811;DHT22;2419;51.276;6.472;2024-01-06T12:10:28;4.00;99.90
4811;DHT22;2419;51.276;6.472;2024-01-06T12:12:57;3.90;99.90
4811;DHT22;2419;51.276;6.472;2024-01-06T12:15:27;4.00;99.90
4811;DHT22;2419;51.276;6.472;2024-01-06T12:17:56;3.90;99.90
4811;DHT22;2419;51.276;6.472;2024-01-06T12:20:26;3.90;99.90
4811;DHT22;2419;51.276;6.472;2024-01-06T12:22:55;3.90;99.90
4811;DHT22;2419;51.276;6.472;2024-01-06T12:25:24;3.90;99.90
4811;DHT22;2419;51.276;6.472;2024-01-06T12:27:55;3.80;99.90
4811;DHT22;2419;51.276;6.472;2024-01-06T12:30:24;3.80;99.90
4811;DHT22;2419;51.276;6.472;2024-01-06T12:32:53;3.80;99.90
4811;DHT22;2419;51.276;6.472;2024-01-06T12:35:21;3.80;99.90
4811;DHT22;2419;51.276;6.472;2024-01-06T12:37:51;3.90;99.90
4811;DHT22;2419;51.276;6.472;2024-01-06T12:40:19;3.80;99.90
4811;DHT22;2419;51.276;6.472;2024-01-06T12:42:48;3.90;99.90
4811;DHT22;2419;51.276;6.472;2024-01-06T12:45:16;3.90;99.90
4811;DHT22;2419;51.276;6.472;2024-01-06T12:47:44;4.00;99.90
4811;DHT22;2419;51.276;6.472;2024-01-06T12:50:13;3.90;99.90
4811;DHT22;2419;51.276;6.472;2024-01-06T12:52:41;3.80;99.90
4811;DHT22;2419;51.276;6.472;2024-01-06T12:55:11;3.80;99.90
4811;DHT22;2419;51.276;6.472;2024-01-06T12:57:39;3.90;99.90
4811;DHT22;2419;51.276;6.472;2024-01-06T13:00:08;3.90;99.90
4811;DHT22;2419;51.276;6.472;2024-01-06T13:02:42;3.80;99.90
4811;DHT22;2419;51.276;6.472;2024-01-06T13:05:10;3.80;99.90
4811;DHT22;2419;51.276;6.472;2024-01-06T13:07:39;3.70;99.90
4811;DHT22;2419;51.276;6.472;2024-01-06T13:10:08;3.70;99.90
4811;DHT22;2419;51.276;6.472;2024-01-06T13:12:38;3.80;99.90
4811;DHT22;2419;51.276;6.472;2024-01-06T13:15:07;3.80;99.90
4811;DHT22;2419;51.276;6.472;2024-01-06T13:17:38;3.80;99.90
4811;DHT22;2419;51.276;6.472;2024-01-06T13:20:07;3.80;99.90
4811;DHT22;2419;51.276;6.472;2024-01-06T13:22:35;3.80;99.90
4811;DHT22;2419;51.276;6.472;2024-01-06T13:25:04;3.70;99.90
4811;DHT22;2419;51.276;6.472;2024-01-06T13:27:34;3.60;99.90
4811;DHT22;2419;51.276;6.472;2024-01-06T13:30:05;3.50;99.90
4811;DHT22;2419;51.276;6.472;2024-01-06T13:32:34;3.50;99.90
4811;DHT22;2419;51.276;6.472;2024-01-06T13:35:02;3.50;99.90
4811;DHT22;2419;51.276;6.472;2024-01-06T13:37:32;3.60;99.90
4811;DHT22;2419;51.276;6.472;2024-01-06T13:40:00;3.60;99.90
4811;DHT22;2419;51.276;6.472;2024-01-06T13:42:29;3.50;99.90
4811;DHT22;2419;51.276;6.472;2024-01-06T13:44:57;3.50;99.90
4811;DHT22;2419;51.276;6.472;2024-01-06T13:47:28;3.50;99.90
4811;DHT22;2419;51.276;6.472;2024-01-06T13:49:57;3.50;99.90
4811;DHT22;2419;51.276;6.472;2024-01-06T13:52:25;3.50;99.90
4811;DHT22;2419;51.276;6.472;2024-01-06T13:54:53;3.50;99.90
4811;DHT22;2419;51.276;6.472;2024-01-06T13:57:22;3.50;99.90
4811;DHT22;2419;51.276;6.472;2024-01-06T13:59:50;3.50;99.90
4811;DHT22;2419;51.276;6.472;2024-01-06T14:02:18;3.60;99.90
4811;DHT22;2419;51.276;6.472;2024-01-06T14:04:47;3.50;99.90
4811;DHT22;2419;51.276;6.472;2024-01-06T14:07:15;3.60;99.90
4811;DHT22;2419;51.276;6.472;2024-01-06T14:09:45;3.60;99.90
4811;DHT22;2419;51.276;6.472;2024-01-06T14:12:14;3.60;99.90
4811;DHT22;2419;51.276;6.472;2024-01-06T14:14:42;3.50;99.90
4811;DHT22;2419;51.276;6.472;2024-01-06T14:17:10;3.60;99.90
4811;DHT22;2419;51.276;6.472;2024-01-06T14:19:38;3.60;99.90
4811;DHT22;2419;51.276;6.472;2024-01-06T14:22:09;3.60;99.90
4811;DHT22;2419;51.276;6.472;2024-01-06T14:24:37;3.50;99.90
4811;DHT22;2419;51.276;6.472;2024-01-06T14:27:05;3.50;99.90
4811;DHT22;2419;51.276;6.472;2024-01-06T14:29:33;3.60;99.90
4811;DHT22;2419;51.276;6.472;2024-01-06T14:32:03;3.50;99.90
4811;DHT22;2419;51.276;6.472;2024-01-06T14:34:31;3.50;99.90
4811;DHT22;2419;51.276;6.472;2024-01-06T14:36:59;3.50;99.90
4811;DHT22;2419;51.276;6.472;2024-01-06T14:39:29;3.40;99.90
4811;DHT22;2419;51.276;6.472;2024-01-06T14:41:57;3.40;99.90
4811;DHT22;2419;51.276;6.472;2024-01-06T14:44:25;3.30;99.90
4811;DHT22;2419;51.276;6.472;2024-01-06T14:46:55;3.30;99.90
4811;DHT22;2419;51.276;6.472;2024-01-06T14:49:23;3.30;99.90
4811;DHT22;2419;51.276;6.472;2024-01-06T14:51:52;3.40;99.90
4811;DHT22;2419;51.276;6.472;2024-01-06T14:54:20;3.50;99.90
4811;DHT22;2419;51.276;6.472;2024-01-06T14:56:49;3.50;99.90
4811;DHT22;2419;51.276;6.472;2024-01-06T14:59:17;3.50;99.90
4811;DHT22;2419;51.276;6.472;2024-01-06T15:01:47;3.50;99.90
4811;DHT22;2419;51.276;6.472;2024-01-06T15:04:15;3.40;99.90
4811;DHT22;2419;51.276;6.472;2024-01-06T15:06:45;3.40;99.90
4811;DHT22;2419;51.276;6.472;2024-01-06T15:09:13;3.40;99.90
4811;DHT22;2419;51.276;6.472;2024-01-06T15:11:41;3.30;99.90
4811;DHT22;2419;51.276;6.472;2024-01-06T15:14:11;3.30;99.90
4811;DHT22;2419;51.276;6.472;2024-01-06T15:16:39;3.30;99.90
4811;DHT22;2419;51.276;6.472;2024-01-06T15:19:07;3.30;99.90
4811;DHT22;2419;51.276;6.472;2024-01-06T15:21:35;3.40;99.90
4811;DHT22;2419;51.276;6.472;2024-01-06T15:24:04;3.40;99.90
4811;DHT22;2419;51.276;6.472;2024-01-06T15:26:32;3.40;99.90
4811;DHT22;2419;51.276;6.472;2024-01-06T15:29:01;3.40;99.90
4811;DHT22;2419;51.276;6.472;2024-01-06T15:31:31;3.40;99.90
4811;DHT22;2419;51.276;6.472;2024-01-06T15:33:59;3.40;99.90
4811;DHT22;2419;51.276;6.472;2024-01-06T15:36:27;3.40;99.90
4811;DHT22;2419;51.276;6.472;2024-01-06T15:38:55;3.30;99.90
4811;DHT22;2419;51.276;6.472;2024-01-06T15:41:23;3.40;99.90
4811;DHT22;2419;51.276;6.472;2024-01-06T15:43:51;3.40;99.90
4811;DHT22;2419;51.276;6.472;2024-01-06T15:46:19;3.30;99.90
4811;DHT22;2419;51.276;6.472;2024-01-06T15:48:49;3.20;99.90
4811;DHT22;2419;51.276;6.472;2024-01-06T15:51:17;3.20;99.90
4811;DHT22;2419;51.276;6.472;2024-01-06T15:53:45;3.10;99.90
4811;DHT22;2419;51.276;6.472;2024-01-06T15:56:13;3.20;99.90
4811;DHT22;2419;51.276;6.472;2024-01-06T15:58:42;3.30;99.90
4811;DHT22;2419;51.276;6.472;2024-01-06T16:01:10;3.20;99.90
4811;DHT22;2419;51.276;6.472;2024-01-06T16:03:39;3.20;99.90
4811;DHT22;2419;51.276;6.472;2024-01-06T16:06:08;3.30;99.90
4811;DHT22;2419;51.276;6.472;2024-01-06T16:08:37;3.40;99.90
4811;DHT22;2419;51.276;6.472;2024-01-06T16:11:05;3.40;99.90
4811;DHT22;2419;51.276;6.472;2024-01-06T16:13:34;3.30;99.90
4811;DHT22;2419;51.276;6.472;2024-01-06T16:16:04;3.20;99.90
4811;DHT22;2419;51.276;6.472;2024-01-06T16:18:38;3.20;99.90
4811;DHT22;2419;51.276;6.472;2024-01-06T16:21:10;3.30;99.90
4811;DHT22;2419;51.276;6.472;2024-01-06T16:23:38;3.20;99.90
4811;DHT22;2419;51.276;6.472;2024-01-06T16:26:08;3.20;99.90
4811;DHT22;2419;51.276;6.472;2024-01-06T16:28:36;3.20;99.90